Time;durP1;ratioP1;P1;durP2;ratioP2;P2;SDS_P1;SDS_P2;PMS_P1;PMS_P2;Temp;Humidity;BMP_temperature;BMP_pressure;BME280_temperature;BME280_humidity;BME280_pressure;Samples;Min_cycle;Max_cycle;Signal;HPM_P1;HPM_P2
2022/05/29 00:00:56;;;;;;;;;;;;;;;;;;2106154;28;19955;-47
2022/05/29 00:01:57;;;;;;;;;;;;;;;;;;2106027;28;20280;-47
2022/05/29 00:02:58;;;;;;;;;;;;;;;;;;2106088;28;19931;-47
2022/05/29 00:03:59;;;;;;;;;;;;;;;;;;2105934;28;20304;-48
2022/05/29 00:05:00;;;;;;;;;;;;;;;;;;2105807;28;19947;-48
2022/05/29 00:06:01;;;;;;;;;;;;;;;;;;2105797;28;20384;-48
2022/05/29 00:07:02;;;;;;;;;;;;;;;;;;2106198;28;19969;-46
2022/05/29 00:08:03;;;;;;;;;;;;;;;;;;2106024;28;19924;-47
2022/05/29 00:09:03;;;;;;;;;;;;;;;;;;2106067;28;20327;-48
2022/05/29 00:10:04;;;;;;;;;;;;;;;;;;2106046;28;19962;-47
2022/05/29 00:11:05;;;;;;;;;;;;;;;;;;2105974;28;20222;-47
2022/05/29 00:12:06;;;;;;;;;;;;;;;;;;2106044;28;19927;-49
2022/05/29 00:13:07;;;;;;;;;;;;;;;;;;2105238;28;19920;-47
2022/05/29 00:14:08;;;;;;;;;;;;;;;;;;2105923;28;20010;-46
2022/05/29 00:15:09;;;;;;;;;;;;;;;;;;2106062;28;19973;-46
2022/05/29 00:16:10;;;;;;;;;;;;;;;;;;2106012;28;19927;-47
2022/05/29 00:17:10;;;;;;;;;;;;;;;;;;2105348;28;20010;-47
2022/05/29 00:18:12;;;;;;;;;;;;;;;;;;2107425;28;20280;-48
2022/05/29 00:19:13;;;;;;;;;;;;;;;;;;2100047;28;20011;-46
2022/05/29 00:20:14;;;;;;;;;;;;;;;;;;2105402;28;20003;-46
2022/05/29 00:21:15;;;;;;;;;;;;;;;;;;2107386;28;19920;-47
2022/05/29 00:22:16;;;;;;;;;;;;;;;;;;2107598;28;19954;-47
2022/05/29 00:23:17;;;;;;;;;;;;;;;;;;2107466;28;19920;-47
2022/05/29 00:24:18;;;;;;;;;;;;;;;;;;2107319;28;19923;-46
2022/05/29 00:25:19;;;;;;;;;;;;;;;;;;2107589;28;19920;-47
2022/05/29 00:26:20;;;;;;;;;;;;;;;;;;2107366;28;19981;-47
2022/05/29 00:27:20;;;;;;;;;;;;;;;;;;2107423;28;20409;-47
2022/05/29 00:28:21;;;;;;;;;;;;;;;;;;2107416;28;19959;-47
2022/05/29 00:29:22;;;;;;;;;;;;;;;;;;2107470;28;19924;-47
2022/05/29 00:30:26;;;;;;;;;;;;;;;;;;2107412;28;19951;-47
2022/05/29 00:31:27;;;;;;;;;;;;;;;;;;2107500;28;19927;-47
2022/05/29 00:32:29;;;;;;;;;;;;;;;;;;2107365;28;19924;-47
2022/05/29 00:33:29;;;;;;;;;;;;;;;;;;2107475;28;20015;-47
2022/05/29 00:34:30;;;;;;;;;;;;;;;;;;2107121;28;19956;-47
2022/05/29 00:35:31;;;;;;;;;;;;;;;;;;2107351;28;19927;-47
2022/05/29 00:36:32;;;;;;;;;;;;;;;;;;2107370;28;20373;-47
2022/05/29 00:37:33;;;;;;;;;;;;;;;;;;2107346;28;20061;-46
2022/05/29 00:38:34;;;;;;;;;;;;;;;;;;2107353;28;19923;-47
2022/05/29 00:39:34;;;;;;;;;;;;;;;;;;2107317;28;19935;-47
2022/05/29 00:40:36;;;;;;;;;;;;;;;;;;2107419;28;19990;-48
2022/05/29 00:41:37;;;;;;;;;;;;;;;;;;2107419;28;20001;-47
2022/05/29 00:42:37;;;;;;;;;;;;;;;;;;2107254;28;20421;-47
2022/05/29 00:43:38;;;;;;;;;;;;;;;;;;2107342;28;19935;-48
2022/05/29 00:44:39;;;;;;;;;;;;;;;;;;2105476;28;20040;-47
2022/05/29 00:45:40;;;;;;;;;;;;;;;;;;2107307;28;19943;-47
2022/05/29 00:46:41;;;;;;;;;;;;;;;;;;2107301;28;19924;-45
2022/05/29 00:47:42;;;;;;;;;;;;;;;;;;2107422;28;19920;-48
2022/05/29 00:48:43;;;;;;;;;;;;;;;;;;2107161;28;19927;-47
2022/05/29 00:49:44;;;;;;;;;;;;;;;;;;2107417;28;19958;-47
2022/05/29 00:50:44;;;;;;;;;;;;;;;;;;2107499;28;19928;-49
2022/05/29 00:51:45;;;;;;;;;;;;;;;;;;2107419;28;19976;-47
2022/05/29 00:52:46;;;;;;;;;;;;;;;;;;2107272;28;19920;-46
2022/05/29 00:53:47;;;;;;;;;;;;;;;;;;2107321;28;20368;-46
2022/05/29 00:54:53;;;;;;;;;;;;;;;;;;2107262;28;20278;-47
2022/05/29 00:55:54;;;;;;;;;;;;;;;;;;2107234;28;20027;-46
2022/05/29 00:56:55;;;;;;;;;;;;;;;;;;2107246;28;19920;-47
2022/05/29 00:57:55;;;;;;;;;;;;;;;;;;2107236;28;20010;-48
2022/05/29 00:58:56;;;;;;;;;;;;;;;;;;2107360;28;19927;-49
2022/05/29 00:59:57;;;;;;;;;;;;;;;;;;2107160;28;19920;-48
2022/05/29 01:00:58;;;;;;;;;;;;;;;;;;2107196;28;20019;-47
2022/05/29 01:01:59;;;;;;;;;;;;;;;;;;2107209;28;20098;-46
2022/05/29 01:03:00;;;;;;;;;;;;;;;;;;2107257;28;19980;-46
2022/05/29 01:04:01;;;;;;;;;;;;;;;;;;2107236;28;19920;-49
2022/05/29 01:05:02;;;;;;;;;;;;;;;;;;2107296;28;19920;-47
2022/05/29 01:06:02;;;;;;;;;;;;;;;;;;2107296;28;20288;-46
2022/05/29 01:07:03;;;;;;;;;;;;;;;;;;2107166;28;19974;-47
2022/05/29 01:08:04;;;;;;;;;;;;;;;;;;2107252;28;19955;-47
2022/05/29 01:09:06;;;;;;;;;;;;;;;;;;2106994;28;19963;-48
2022/05/29 01:10:06;;;;;;;;;;;;;;;;;;2107271;28;19920;-47
2022/05/29 01:11:07;;;;;;;;;;;;;;;;;;2107139;28;19924;-47
2022/05/29 01:12:08;;;;;;;;;;;;;;;;;;2107201;28;20014;-47
2022/05/29 01:13:09;;;;;;;;;;;;;;;;;;2107237;28;20205;-47
2022/05/29 01:14:10;;;;;;;;;;;;;;;;;;2107145;28;19970;-48
2022/05/29 01:15:11;;;;;;;;;;;;;;;;;;2107045;28;20398;-47
2022/05/29 01:16:11;;;;;;;;;;;;;;;;;;2107068;28;19920;-47
2022/05/29 01:17:13;;;;;;;;;;;;;;;;;;2107123;28;20037;-47
2022/05/29 01:18:13;;;;;;;;;;;;;;;;;;2107095;28;19927;-48
2022/05/29 01:19:14;;;;;;;;;;;;;;;;;;2099583;28;19927;-46
2022/05/29 01:20:15;;;;;;;;;;;;;;;;;;2098744;28;19920;-46
2022/05/29 01:21:16;;;;;;;;;;;;;;;;;;2098693;28;19920;-47
2022/05/29 01:22:17;;;;;;;;;;;;;;;;;;2098743;28;19926;-47
2022/05/29 01:23:18;;;;;;;;;;;;;;;;;;2098622;28;19931;-47
2022/05/29 01:24:19;;;;;;;;;;;;;;;;;;2098726;28;19920;-48
2022/05/29 01:25:20;;;;;;;;;;;;;;;;;;2098644;28;20353;-47
2022/05/29 01:26:21;;;;;;;;;;;;;;;;;;2098745;28;19920;-47
2022/05/29 01:27:22;;;;;;;;;;;;;;;;;;2098628;28;20381;-49
2022/05/29 01:28:23;;;;;;;;;;;;;;;;;;2098476;28;20023;-49
2022/05/29 01:29:24;;;;;;;;;;;;;;;;;;2098623;28;19970;-47
2022/05/29 01:30:24;;;;;;;;;;;;;;;;;;2101549;28;20019;-47
2022/05/29 01:31:25;;;;;;;;;;;;;;;;;;2106977;28;20316;-47
2022/05/29 01:32:26;;;;;;;;;;;;;;;;;;2107204;28;19958;-47
2022/05/29 01:33:27;;;;;;;;;;;;;;;;;;2107052;28;19920;-47
2022/05/29 01:34:28;;;;;;;;;;;;;;;;;;2106964;28;19923;-47
2022/05/29 01:35:29;;;;;;;;;;;;;;;;;;2107017;28;19931;-47
2022/05/29 01:36:29;;;;;;;;;;;;;;;;;;2106959;28;19920;-49
2022/05/29 01:37:31;;;;;;;;;;;;;;;;;;2107060;28;19959;-47
2022/05/29 01:38:31;;;;;;;;;;;;;;;;;;2106935;28;19959;-46
2022/05/29 01:39:32;;;;;;;;;;;;;;;;;;2106853;28;19920;-46
2022/05/29 01:40:33;;;;;;;;;;;;;;;;;;2106854;28;20053;-47
2022/05/29 01:41:34;;;;;;;;;;;;;;;;;;2106909;28;19928;-47
2022/05/29 01:42:35;;;;;;;;;;;;;;;;;;2107008;28;19920;-48
2022/05/29 01:43:36;;;;;;;;;;;;;;;;;;2106815;28;20429;-46
2022/05/29 01:44:37;;;;;;;;;;;;;;;;;;2106864;28;19920;-47
2022/05/29 01:45:53;;;;;;;;;;;;;;;;;;2107037;28;19932;-46
2022/05/29 01:46:54;;;;;;;;;;;;;;;;;;2106850;28;20289;-48
2022/05/29 01:47:55;;;;;;;;;;;;;;;;;;2106895;28;19920;-46
2022/05/29 01:48:56;;;;;;;;;;;;;;;;;;2106815;28;20688;-47
2022/05/29 01:49:57;;;;;;;;;;;;;;;;;;2106978;28;19920;-46
2022/05/29 01:50:57;;;;;;;;;;;;;;;;;;2106906;28;19919;-47
2022/05/29 01:51:58;;;;;;;;;;;;;;;;;;2106830;28;19959;-46
2022/05/29 01:52:59;;;;;;;;;;;;;;;;;;2106901;28;19970;-46
2022/05/29 01:54:00;;;;;;;;;;;;;;;;;;2106860;28;19927;-47
2022/05/29 01:55:01;;;;;;;;;;;;;;;;;;2106862;28;19920;-46
2022/05/29 01:56:02;;;;;;;;;;;;;;;;;;2106781;28;19934;-47
2022/05/29 01:57:02;;;;;;;;;;;;;;;;;;2106984;28;20002;-46
2022/05/29 01:58:03;;;;;;;;;;;;;;;;;;2106798;28;20345;-47
2022/05/29 01:59:04;;;;;;;;;;;;;;;;;;2107031;28;20007;-48
2022/05/29 02:00:05;;;;;;;;;;;;;;;;;;2106812;28;19927;-47
2022/05/29 02:01:06;;;;;;;;;;;;;;;;;;2106797;28;19927;-47
2022/05/29 02:02:07;;;;;;;;;;;;;;;;;;2106969;28;19927;-47
2022/05/29 02:03:08;;;;;;;;;;;;;;;;;;2106783;28;20023;-46
2022/05/29 02:04:09;;;;;;;;;;;;;;;;;;2106849;28;19924;-47
2022/05/29 02:05:09;;;;;;;;;;;;;;;;;;2106622;28;19920;-47
2022/05/29 02:06:10;;;;;;;;;;;;;;;;;;2106929;28;20372;-47
2022/05/29 02:08:31;;;;;;;;;;;;;;;;;;2106755;28;20365;-47
2022/05/29 02:09:31;;;;;;;;;;;;;;;;;;2106762;28;19934;-46
2022/05/29 02:10:32;;;;;;;;;;;;;;;;;;2106765;28;19920;-47
2022/05/29 02:11:33;;;;;;;;;;;;;;;;;;2106843;28;19959;-47
2022/05/29 02:12:34;;;;;;;;;;;;;;;;;;2106855;28;20010;-46
2022/05/29 02:13:35;;;;;;;;;;;;;;;;;;2106954;28;20298;-47
2022/05/29 02:14:36;;;;;;;;;;;;;;;;;;2106487;28;20007;-48
2022/05/29 02:15:37;;;;;;;;;;;;;;;;;;2106894;28;19920;-46
2022/05/29 02:16:38;;;;;;;;;;;;;;;;;;2106717;28;19938;-47
2022/05/29 02:17:39;;;;;;;;;;;;;;;;;;2106794;28;20478;-47
2022/05/29 02:18:41;;;;;;;;;;;;;;;;;;2103906;28;20368;-46
2022/05/29 02:19:42;;;;;;;;;;;;;;;;;;2098371;28;20007;-46
2022/05/29 02:20:43;;;;;;;;;;;;;;;;;;2098381;28;19920;-46
2022/05/29 02:21:44;;;;;;;;;;;;;;;;;;2098322;28;20338;-46
2022/05/29 02:22:45;;;;;;;;;;;;;;;;;;2098424;28;19928;-47
2022/05/29 02:23:46;;;;;;;;;;;;;;;;;;2098289;28;20013;-47
2022/05/29 02:24:46;;;;;;;;;;;;;;;;;;2098264;28;20438;-46
2022/05/29 02:25:47;;;;;;;;;;;;;;;;;;2098264;28;20358;-46
2022/05/29 02:26:48;;;;;;;;;;;;;;;;;;2098243;28;19924;-48
2022/05/29 02:27:50;;;;;;;;;;;;;;;;;;2098282;28;19920;-47
2022/05/29 02:28:50;;;;;;;;;;;;;;;;;;2098139;28;20430;-47
2022/05/29 02:29:51;;;;;;;;;;;;;;;;;;2098221;28;19966;-46
2022/05/29 02:30:52;;;;;;;;;;;;;;;;;;2098365;28;19921;-47
2022/05/29 02:31:53;;;;;;;;;;;;;;;;;;2098145;28;19920;-46
2022/05/29 02:32:54;;;;;;;;;;;;;;;;;;2098276;28;19955;-46
2022/05/29 02:33:55;;;;;;;;;;;;;;;;;;2098326;28;19935;-47
2022/05/29 02:34:55;;;;;;;;;;;;;;;;;;2098201;28;20078;-46
2022/05/29 02:35:56;;;;;;;;;;;;;;;;;;2098357;28;20019;-46
2022/05/29 02:36:57;;;;;;;;;;;;;;;;;;2098213;28;19936;-46
2022/05/29 02:37:58;;;;;;;;;;;;;;;;;;2098306;28;19963;-46
2022/05/29 02:38:59;;;;;;;;;;;;;;;;;;2098162;28;19920;-46
2022/05/29 02:40:00;;;;;;;;;;;;;;;;;;2097983;28;19920;-46
2022/05/29 02:41:00;;;;;;;;;;;;;;;;;;2097778;28;19927;-46
2022/05/29 02:42:01;;;;;;;;;;;;;;;;;;2098334;28;20009;-47
2022/05/29 02:43:02;;;;;;;;;;;;;;;;;;2098047;28;19924;-46
2022/05/29 02:44:03;;;;;;;;;;;;;;;;;;2098208;28;20395;-46
2022/05/29 02:45:04;;;;;;;;;;;;;;;;;;2098179;28;20030;-47
2022/05/29 02:46:05;;;;;;;;;;;;;;;;;;2098160;28;19927;-46
2022/05/29 02:47:06;;;;;;;;;;;;;;;;;;2098207;28;20442;-48
2022/05/29 02:48:07;;;;;;;;;;;;;;;;;;2098164;28;19966;-46
2022/05/29 02:49:08;;;;;;;;;;;;;;;;;;2098086;28;19965;-46
2022/05/29 02:50:09;;;;;;;;;;;;;;;;;;2098048;28;19928;-47
2022/05/29 02:51:10;;;;;;;;;;;;;;;;;;2098223;28;20369;-46
2022/05/29 02:52:11;;;;;;;;;;;;;;;;;;2098302;28;19920;-46
2022/05/29 02:53:11;;;;;;;;;;;;;;;;;;2098085;28;20392;-46
2022/05/29 02:54:13;;;;;;;;;;;;;;;;;;2098155;28;20015;-46
2022/05/29 02:55:16;;;;;;;;;;;;;;;;;;2098111;28;19921;-46
2022/05/29 02:56:17;;;;;;;;;;;;;;;;;;2098098;28;20364;-46
2022/05/29 02:57:18;;;;;;;;;;;;;;;;;;2098076;28;19927;-46
2022/05/29 02:58:19;;;;;;;;;;;;;;;;;;2098111;28;20285;-46
2022/05/29 02:59:20;;;;;;;;;;;;;;;;;;2098014;28;20007;-46
2022/05/29 03:00:21;;;;;;;;;;;;;;;;;;2098082;28;19928;-46
2022/05/29 03:01:22;;;;;;;;;;;;;;;;;;2099210;28;19928;-46
2022/05/29 03:02:23;;;;;;;;;;;;;;;;;;2106551;28;19920;-46
2022/05/29 03:03:24;;;;;;;;;;;;;;;;;;2106417;28;20281;-46
2022/05/29 03:04:25;;;;;;;;;;;;;;;;;;2106446;28;19963;-46
2022/05/29 03:05:26;;;;;;;;;;;;;;;;;;2106401;28;19963;-46
2022/05/29 03:06:27;;;;;;;;;;;;;;;;;;2106382;28;20065;-46
2022/05/29 03:07:28;;;;;;;;;;;;;;;;;;2106453;28;19989;-46
2022/05/29 03:08:28;;;;;;;;;;;;;;;;;;2106335;28;19931;-47
2022/05/29 03:09:29;;;;;;;;;;;;;;;;;;2106336;28;19927;-46
2022/05/29 03:10:30;;;;;;;;;;;;;;;;;;2106379;28;19924;-46
2022/05/29 03:11:31;;;;;;;;;;;;;;;;;;2106527;28;19927;-46
2022/05/29 03:12:32;;;;;;;;;;;;;;;;;;2106418;28;20023;-46
2022/05/29 03:13:33;;;;;;;;;;;;;;;;;;2106458;28;20309;-46
2022/05/29 03:14:34;;;;;;;;;;;;;;;;;;2106302;28;19977;-46
2022/05/29 03:15:35;;;;;;;;;;;;;;;;;;2106493;28;19924;-46
2022/05/29 03:16:36;;;;;;;;;;;;;;;;;;2106308;28;20117;-47
2022/05/29 03:17:37;;;;;;;;;;;;;;;;;;2106275;28;19920;-46
2022/05/29 03:18:37;;;;;;;;;;;;;;;;;;2103994;28;20379;-46
2022/05/29 03:19:38;;;;;;;;;;;;;;;;;;2097921;28;19924;-47
2022/05/29 03:20:39;;;;;;;;;;;;;;;;;;2097974;28;20016;-48
2022/05/29 03:21:40;;;;;;;;;;;;;;;;;;2097854;28;20319;-49
2022/05/29 03:22:41;;;;;;;;;;;;;;;;;;2098184;28;19924;-50
2022/05/29 03:23:42;;;;;;;;;;;;;;;;;;2106104;28;20014;-47
2022/05/29 03:24:43;;;;;;;;;;;;;;;;;;2106409;28;19927;-47
2022/05/29 03:25:44;;;;;;;;;;;;;;;;;;2106334;28;20043;-47
2022/05/29 03:26:45;;;;;;;;;;;;;;;;;;2106272;28;20367;-48
2022/05/29 03:27:45;;;;;;;;;;;;;;;;;;2106388;28;19920;-46
2022/05/29 03:28:46;;;;;;;;;;;;;;;;;;2106115;28;19939;-47
2022/05/29 03:29:47;;;;;;;;;;;;;;;;;;2106338;28;20395;-48
2022/05/29 03:30:49;;;;;;;;;;;;;;;;;;2106259;28;19919;-47
2022/05/29 03:31:50;;;;;;;;;;;;;;;;;;2106330;28;20010;-47
2022/05/29 03:32:51;;;;;;;;;;;;;;;;;;2106131;28;20330;-47
2022/05/29 03:33:52;;;;;;;;;;;;;;;;;;2106190;28;19920;-47
2022/05/29 03:34:53;;;;;;;;;;;;;;;;;;2106168;28;19927;-47
2022/05/29 03:35:53;;;;;;;;;;;;;;;;;;2106218;28;20026;-47
2022/05/29 03:36:54;;;;;;;;;;;;;;;;;;2106351;28;20353;-47
2022/05/29 03:37:55;;;;;;;;;;;;;;;;;;2106127;28;19920;-46
2022/05/29 03:38:56;;;;;;;;;;;;;;;;;;2106085;28;19930;-47
2022/05/29 03:39:57;;;;;;;;;;;;;;;;;;2106148;28;19928;-46
2022/05/29 03:40:58;;;;;;;;;;;;;;;;;;2106404;28;20384;-47
2022/05/29 03:41:59;;;;;;;;;;;;;;;;;;2106180;28;20358;-46
2022/05/29 03:42:59;;;;;;;;;;;;;;;;;;2106267;28;19938;-46
2022/05/29 03:44:00;;;;;;;;;;;;;;;;;;2106059;28;20021;-46
2022/05/29 03:45:01;;;;;;;;;;;;;;;;;;2106261;28;19920;-47
2022/05/29 03:46:03;;;;;;;;;;;;;;;;;;2105999;28;19920;-46
2022/05/29 03:47:04;;;;;;;;;;;;;;;;;;2105657;28;19920;-49
2022/05/29 03:48:05;;;;;;;;;;;;;;;;;;2106201;28;20015;-47
2022/05/29 03:49:06;;;;;;;;;;;;;;;;;;2106000;28;19943;-46
2022/05/29 03:50:07;;;;;;;;;;;;;;;;;;2106094;28;20481;-47
2022/05/29 03:51:08;;;;;;;;;;;;;;;;;;2106033;28;20644;-46
2022/05/29 03:52:09;;;;;;;;;;;;;;;;;;2105186;28;19924;-46
2022/05/29 03:53:10;;;;;;;;;;;;;;;;;;2105855;28;19962;-47
2022/05/29 03:54:11;;;;;;;;;;;;;;;;;;2105906;28;20284;-46
2022/05/29 03:55:11;;;;;;;;;;;;;;;;;;2105962;28;19920;-46
2022/05/29 03:56:12;;;;;;;;;;;;;;;;;;2106123;28;20423;-46
2022/05/29 03:57:13;;;;;;;;;;;;;;;;;;2106063;28;19943;-46
2022/05/29 03:58:14;;;;;;;;;;;;;;;;;;2104141;28;19994;-46
2022/05/29 03:59:15;;;;;;;;;;;;;;;;;;2097756;28;19920;-48
2022/05/29 04:00:16;;;;;;;;;;;;;;;;;;2097628;28;19935;-47
2022/05/29 04:01:17;;;;;;;;;;;;;;;;;;2097815;28;19926;-47
2022/05/29 04:02:18;;;;;;;;;;;;;;;;;;2097607;28;19927;-47
2022/05/29 04:03:19;;;;;;;;;;;;;;;;;;2097616;28;19928;-46
2022/05/29 04:04:20;;;;;;;;;;;;;;;;;;2097663;28;19920;-46
2022/05/29 04:05:21;;;;;;;;;;;;;;;;;;2097581;28;20270;-47
2022/05/29 04:06:22;;;;;;;;;;;;;;;;;;2097600;28;19927;-47
2022/05/29 04:12:03;;;;;;;;;;;;;;;;;;2097763;28;19921;-46
2022/05/29 04:12:42;;;;;;;;;;;;;;;;;;2097626;28;20016;-47
2022/05/29 04:13:42;;;;;;;;;;;;;;;;;;2097464;28;19927;-47
2022/05/29 04:14:43;;;;;;;;;;;;;;;;;;2097585;28;19963;-46
2022/05/29 04:15:45;;;;;;;;;;;;;;;;;;2097730;28;19920;-47
2022/05/29 04:16:46;;;;;;;;;;;;;;;;;;2097597;28;20528;-48
2022/05/29 04:17:46;;;;;;;;;;;;;;;;;;2097548;28;19920;-48
2022/05/29 04:18:47;;;;;;;;;;;;;;;;;;2100962;28;19931;-47
2022/05/29 04:19:48;;;;;;;;;;;;;;;;;;2105738;28;19920;-47
2022/05/29 04:20:49;;;;;;;;;;;;;;;;;;2105871;28;19985;-47
2022/05/29 04:21:51;;;;;;;;;;;;;;;;;;2106056;28;20388;-47
2022/05/29 04:22:52;;;;;;;;;;;;;;;;;;2105891;28;19920;-47
2022/05/29 04:23:53;;;;;;;;;;;;;;;;;;2106011;28;20012;-47
2022/05/29 04:24:53;;;;;;;;;;;;;;;;;;2105957;28;19927;-47
2022/05/29 04:25:54;;;;;;;;;;;;;;;;;;2105875;28;19974;-47
2022/05/29 04:26:55;;;;;;;;;;;;;;;;;;2105886;28;20015;-48
2022/05/29 04:27:56;;;;;;;;;;;;;;;;;;2106041;28;19940;-47
2022/05/29 04:28:57;;;;;;;;;;;;;;;;;;2105939;28;20005;-46
2022/05/29 04:29:58;;;;;;;;;;;;;;;;;;2106228;28;20364;-46
2022/05/29 04:30:59;;;;;;;;;;;;;;;;;;2105899;28;19931;-49
2022/05/29 04:33:19;;;;;;;;;;;;;;;;;;2105856;28;20346;-47
2022/05/29 04:34:20;;;;;;;;;;;;;;;;;;2105793;28;20003;-47
2022/05/29 04:35:21;;;;;;;;;;;;;;;;;;2106019;28;19920;-48
2022/05/29 04:36:22;;;;;;;;;;;;;;;;;;2105869;28;19966;-48
2022/05/29 04:37:23;;;;;;;;;;;;;;;;;;2106006;28;19920;-47
2022/05/29 04:38:24;;;;;;;;;;;;;;;;;;2105797;28;20267;-47
2022/05/29 04:39:25;;;;;;;;;;;;;;;;;;2106160;28;19923;-60
2022/05/29 04:40:25;;;;;;;;;;;;;;;;;;2105949;28;19920;-61
2022/05/29 04:41:26;;;;;;;;;;;;;;;;;;2105841;28;19943;-61
2022/05/29 04:42:27;;;;;;;;;;;;;;;;;;2105822;28;20026;-61
2022/05/29 04:43:28;;;;;;;;;;;;;;;;;;2105747;28;20416;-61
2022/05/29 04:44:29;;;;;;;;;;;;;;;;;;2105834;28;19986;-61
2022/05/29 04:45:30;;;;;;;;;;;;;;;;;;2105945;28;19920;-61
2022/05/29 04:46:30;;;;;;;;;;;;;;;;;;2105829;28;19920;-60
2022/05/29 04:47:32;;;;;;;;;;;;;;;;;;2105825;28;20399;-60
2022/05/29 04:48:33;;;;;;;;;;;;;;;;;;2105940;28;19999;-60
2022/05/29 04:49:33;;;;;;;;;;;;;;;;;;2105664;28;20258;-60
2022/05/29 04:50:34;;;;;;;;;;;;;;;;;;2105870;28;20024;-60
2022/05/29 04:51:35;;;;;;;;;;;;;;;;;;2105834;28;19928;-60
2022/05/29 04:52:36;;;;;;;;;;;;;;;;;;2105755;28;20323;-60
2022/05/29 04:53:37;;;;;;;;;;;;;;;;;;2105689;28;19920;-60
2022/05/29 04:54:38;;;;;;;;;;;;;;;;;;2105782;28;20195;-60
2022/05/29 04:55:39;;;;;;;;;;;;;;;;;;2106147;28;20355;-60
2022/05/29 04:56:40;;;;;;;;;;;;;;;;;;2105916;28;19920;-60
2022/05/29 04:57:41;;;;;;;;;;;;;;;;;;2105842;28;20353;-60
2022/05/29 04:58:42;;;;;;;;;;;;;;;;;;2105637;28;20292;-60
2022/05/29 04:59:43;;;;;;;;;;;;;;;;;;2105790;28;19920;-59
2022/05/29 05:00:44;;;;;;;;;;;;;;;;;;2105198;28;20069;-60
2022/05/29 05:01:46;;;;;;;;;;;;;;;;;;2105820;28;20009;-60
2022/05/29 05:02:46;;;;;;;;;;;;;;;;;;2105829;28;20134;-60
2022/05/29 05:03:47;;;;;;;;;;;;;;;;;;2106260;28;19978;-60
2022/05/29 05:04:48;;;;;;;;;;;;;;;;;;2107028;28;19923;-61
2022/05/29 05:05:49;;;;;;;;;;;;;;;;;;2107116;28;20377;-61
2022/05/29 05:06:50;;;;;;;;;;;;;;;;;;2107291;28;19927;-61
2022/05/29 05:07:51;;;;;;;;;;;;;;;;;;2107350;28;20003;-48
2022/05/29 05:08:52;;;;;;;;;;;;;;;;;;2107020;28;19982;-47
2022/05/29 05:09:52;;;;;;;;;;;;;;;;;;2107164;28;19945;-47
2022/05/29 05:10:53;;;;;;;;;;;;;;;;;;2107172;28;19968;-47
2022/05/29 05:11:54;;;;;;;;;;;;;;;;;;2107162;28;19927;-46
2022/05/29 05:12:55;;;;;;;;;;;;;;;;;;2107403;28;20331;-46
2022/05/29 05:13:56;;;;;;;;;;;;;;;;;;2107195;28;20280;-47
2022/05/29 05:14:57;;;;;;;;;;;;;;;;;;2107108;28;19948;-47
2022/05/29 05:15:57;;;;;;;;;;;;;;;;;;2107046;28;20411;-47
2022/05/29 05:16:58;;;;;;;;;;;;;;;;;;2107083;28;20011;-47
2022/05/29 05:17:59;;;;;;;;;;;;;;;;;;2107108;28;19977;-48
2022/05/29 05:19:00;;;;;;;;;;;;;;;;;;2101572;28;19924;-46
2022/05/29 05:20:01;;;;;;;;;;;;;;;;;;2098748;28;19920;-47
2022/05/29 05:21:02;;;;;;;;;;;;;;;;;;2098714;28;19927;-46
2022/05/29 05:22:03;;;;;;;;;;;;;;;;;;2098834;28;20415;-47
2022/05/29 05:23:04;;;;;;;;;;;;;;;;;;2098694;28;20170;-47
2022/05/29 05:24:04;;;;;;;;;;;;;;;;;;2098617;28;19921;-47
2022/05/29 05:25:05;;;;;;;;;;;;;;;;;;2098677;28;20442;-47
2022/05/29 05:26:06;;;;;;;;;;;;;;;;;;2098727;28;19920;-46
2022/05/29 05:27:07;;;;;;;;;;;;;;;;;;2098888;28;19920;-61
2022/05/29 05:28:12;;;;;;;;;;;;;;;;;;2098641;28;20485;-61
2022/05/29 05:29:14;;;;;;;;;;;;;;;;;;2098812;28;19974;-47
2022/05/29 05:30:15;;;;;;;;;;;;;;;;;;2098621;28;20337;-47
2022/05/29 05:31:16;;;;;;;;;;;;;;;;;;2098692;28;19975;-47
2022/05/29 05:32:17;;;;;;;;;;;;;;;;;;2098617;28;20366;-47
2022/05/29 05:33:18;;;;;;;;;;;;;;;;;;2098603;28;19927;-46
2022/05/29 05:34:20;;;;;;;;;;;;;;;;;;2098489;28;20373;-48
2022/05/29 05:35:21;;;;;;;;;;;;;;;;;;2098585;28;19928;-47
2022/05/29 05:36:22;;;;;;;;;;;;;;;;;;2098912;28;20392;-48
2022/05/29 05:37:23;;;;;;;;;;;;;;;;;;2098743;28;19994;-47
2022/05/29 05:38:23;;;;;;;;;;;;;;;;;;2098587;28;20356;-47
2022/05/29 05:39:24;;;;;;;;;;;;;;;;;;2098537;28;19921;-47
2022/05/29 05:40:25;;;;;;;;;;;;;;;;;;2098691;28;19920;-48
2022/05/29 05:41:26;;;;;;;;;;;;;;;;;;2098570;28;20055;-47
2022/05/29 05:42:27;;;;;;;;;;;;;;;;;;2098590;28;20015;-47
2022/05/29 05:43:28;;;;;;;;;;;;;;;;;;2098543;28;20110;-46
2022/05/29 05:44:29;;;;;;;;;;;;;;;;;;2098613;28;19936;-47
2022/05/29 05:45:30;;;;;;;;;;;;;;;;;;2098591;28;20019;-49
2022/05/29 05:46:31;;;;;;;;;;;;;;;;;;2098687;28;20065;-49
2022/05/29 05:47:31;;;;;;;;;;;;;;;;;;2098592;28;19920;-49
2022/05/29 05:48:33;;;;;;;;;;;;;;;;;;2098717;28;19927;-49
2022/05/29 05:49:36;;;;;;;;;;;;;;;;;;2098440;28;19920;-49
2022/05/29 05:50:37;;;;;;;;;;;;;;;;;;2103710;28;20030;-49
2022/05/29 05:51:38;;;;;;;;;;;;;;;;;;2106883;28;19955;-46
2022/05/29 05:52:39;;;;;;;;;;;;;;;;;;2106780;28;19927;-47
2022/05/29 05:53:40;;;;;;;;;;;;;;;;;;2106822;28;20420;-47
2022/05/29 05:54:41;;;;;;;;;;;;;;;;;;2106850;28;20015;-47
2022/05/29 05:55:41;;;;;;;;;;;;;;;;;;2106804;28;19924;-47
2022/05/29 05:56:42;;;;;;;;;;;;;;;;;;2107006;28;20030;-61
2022/05/29 05:57:43;;;;;;;;;;;;;;;;;;2106825;28;19920;-61
2022/05/29 05:58:44;;;;;;;;;;;;;;;;;;2106800;28;20354;-61
2022/05/29 05:59:45;;;;;;;;;;;;;;;;;;2106761;28;19924;-61
2022/05/29 06:00:46;;;;;;;;;;;;;;;;;;2106912;28;19927;-61
2022/05/29 06:01:47;;;;;;;;;;;;;;;;;;2106811;28;20327;-61
2022/05/29 06:02:48;;;;;;;;;;;;;;;;;;2106824;28;20369;-61
2022/05/29 06:03:49;;;;;;;;;;;;;;;;;;2106624;28;19920;-61
2022/05/29 06:04:50;;;;;;;;;;;;;;;;;;2106853;28;19927;-61
2022/05/29 06:05:51;;;;;;;;;;;;;;;;;;2106804;28;19934;-61
2022/05/29 06:06:53;;;;;;;;;;;;;;;;;;2106755;28;20407;-61
2022/05/29 06:07:54;;;;;;;;;;;;;;;;;;2106808;28;20004;-61
2022/05/29 06:08:56;;;;;;;;;;;;;;;;;;2106756;28;19998;-61
2022/05/29 06:09:57;;;;;;;;;;;;;;;;;;2107185;28;19920;-61
2022/05/29 06:10:58;;;;;;;;;;;;;;;;;;2106687;28;19927;-61
2022/05/29 06:11:59;;;;;;;;;;;;;;;;;;2106884;28;20300;-47
2022/05/29 06:13:00;;;;;;;;;;;;;;;;;;2106669;28;19946;-46
2022/05/29 06:14:01;;;;;;;;;;;;;;;;;;2106804;28;19927;-47
2022/05/29 06:15:01;;;;;;;;;;;;;;;;;;2106098;28;20372;-47
2022/05/29 06:16:02;;;;;;;;;;;;;;;;;;2106333;28;19919;-47
2022/05/29 06:17:03;;;;;;;;;;;;;;;;;;2106870;28;20281;-61
2022/05/29 06:18:04;;;;;;;;;;;;;;;;;;2106859;28;19920;-61
2022/05/29 06:19:06;;;;;;;;;;;;;;;;;;2100529;28;19920;-61
2022/05/29 06:20:07;;;;;;;;;;;;;;;;;;2098365;28;20015;-61
2022/05/29 06:21:08;;;;;;;;;;;;;;;;;;2098507;28;19960;-61
2022/05/29 06:22:09;;;;;;;;;;;;;;;;;;2098338;28;19952;-61
2022/05/29 06:23:09;;;;;;;;;;;;;;;;;;2098436;28;19924;-61
2022/05/29 06:24:10;;;;;;;;;;;;;;;;;;2098072;28;19970;-61
2022/05/29 06:25:11;;;;;;;;;;;;;;;;;;2098464;28;20391;-61
2022/05/29 06:26:12;;;;;;;;;;;;;;;;;;2098323;28;19940;-61
2022/05/29 06:27:13;;;;;;;;;;;;;;;;;;2098408;28;20019;-62
2022/05/29 06:28:14;;;;;;;;;;;;;;;;;;2098243;28;19966;-62
2022/05/29 06:29:14;;;;;;;;;;;;;;;;;;2098447;28;20015;-46
2022/05/29 06:30:15;;;;;;;;;;;;;;;;;;2098269;28;19920;-47
2022/05/29 06:31:16;;;;;;;;;;;;;;;;;;2098304;28;19920;-48
2022/05/29 06:32:18;;;;;;;;;;;;;;;;;;2098309;28;20369;-47
2022/05/29 06:33:19;;;;;;;;;;;;;;;;;;2098343;28;19927;-47
2022/05/29 06:34:19;;;;;;;;;;;;;;;;;;2098302;28;20023;-47
2022/05/29 06:35:20;;;;;;;;;;;;;;;;;;2098257;28;19964;-49
2022/05/29 06:36:23;;;;;;;;;;;;;;;;;;2098333;28;19927;-47
2022/05/29 06:37:24;;;;;;;;;;;;;;;;;;2098258;28;20007;-47
2022/05/29 06:38:29;;;;;;;;;;;;;;;;;;2098409;28;19924;-44
2022/05/29 06:39:30;;;;;;;;;;;;;;;;;;2098217;28;19981;-49
2022/05/29 06:40:31;;;;;;;;;;;;;;;;;;2098181;28;19920;-47
2022/05/29 06:41:34;;;;;;;;;;;;;;;;;;2098185;28;19924;-46
2022/05/29 06:42:35;;;;;;;;;;;;;;;;;;2098332;28;20493;-46
2022/05/29 06:43:36;;;;;;;;;;;;;;;;;;2098040;28;19931;-47
2022/05/29 06:44:37;;;;;;;;;;;;;;;;;;2098138;28;19950;-46
2022/05/29 06:45:38;;;;;;;;;;;;;;;;;;2098276;28;20142;-47
2022/05/29 06:46:39;;;;;;;;;;;;;;;;;;2101601;28;19924;-47
2022/05/29 06:47:40;;;;;;;;;;;;;;;;;;2106493;28;19924;-47
2022/05/29 06:48:41;;;;;;;;;;;;;;;;;;2106477;28;19939;-47
2022/05/29 06:49:42;;;;;;;;;;;;;;;;;;2106647;28;19920;-47
2022/05/29 06:50:43;;;;;;;;;;;;;;;;;;2106591;28;20288;-47
2022/05/29 06:51:43;;;;;;;;;;;;;;;;;;2106626;28;20010;-48
2022/05/29 06:52:44;;;;;;;;;;;;;;;;;;2106640;28;19920;-47
2022/05/29 06:53:45;;;;;;;;;;;;;;;;;;2106364;28;19955;-47
2022/05/29 06:54:46;;;;;;;;;;;;;;;;;;2106565;28;19947;-47
2022/05/29 06:55:47;;;;;;;;;;;;;;;;;;2106426;28;19956;-47
2022/05/29 06:56:48;;;;;;;;;;;;;;;;;;2106729;28;19927;-47
2022/05/29 06:57:49;;;;;;;;;;;;;;;;;;2106572;28;19989;-49
2022/05/29 06:58:49;;;;;;;;;;;;;;;;;;2106341;28;19928;-46
2022/05/29 07:07:46;;;;;;;;;;;;;;;;;;2106286;28;20375;-62
2022/05/29 07:08:47;;;;;;;;;;;;;;;;;;2106376;28;19920;-63
2022/05/29 07:09:47;;;;;;;;;;;;;;;;;;2106957;28;19958;-63
2022/05/29 07:10:48;;;;;;;;;;;;;;;;;;2106456;28;20006;-63
2022/05/29 07:11:49;;;;;;;;;;;;;;;;;;2106378;28;19934;-62